sensor_id;sensor_type;location;lat;lon;timestamp;pressure;altitude;pressure_sealevel;temperature;humidity
44044;BME280;29709;52.396;16.796;2023-04-30T00:00:08;101857.27;;;10.09;73.65
44044;BME280;29709;52.396;16.796;2023-04-30T00:03:22;101863.19;;;10.04;73.51
44044;BME280;29709;52.396;16.796;2023-04-30T00:06:36;101869.36;;;9.97;73.36
44044;BME280;29709;52.396;16.796;2023-04-30T00:09:49;101866.85;;;9.84;73.31
44044;BME280;29709;52.396;16.796;2023-04-30T00:13:03;101866.38;;;9.79;73.42
44044;BME280;29709;52.396;16.796;2023-04-30T00:16:17;101872.88;;;9.78;73.27
44044;BME280;29709;52.396;16.796;2023-04-30T00:19:30;101872.16;;;9.76;72.99
44044;BME280;29709;52.396;16.796;2023-04-30T00:22:43;101870.70;;;9.72;73.30
44044;BME280;29709;52.396;16.796;2023-04-30T00:25:56;101876.73;;;9.66;73.39
44044;BME280;29709;52.396;16.796;2023-04-30T00:29:09;101879.76;;;9.63;73.33
44044;BME280;29709;52.396;16.796;2023-04-30T00:32:24;101885.39;;;9.61;72.91
44044;BME280;29709;52.396;16.796;2023-04-30T00:35:37;101883.76;;;9.59;72.57
44044;BME280;29709;52.396;16.796;2023-04-30T00:38:50;101890.39;;;9.56;72.38
44044;BME280;29709;52.396;16.796;2023-04-30T00:42:03;101896.30;;;9.51;72.55
44044;BME280;29709;52.396;16.796;2023-04-30T00:45:17;101890.47;;;9.45;72.38
44044;BME280;29709;52.396;16.796;2023-04-30T00:48:33;101896.45;;;9.29;72.42
44044;BME280;29709;52.396;16.796;2023-04-30T00:51:48;101892.48;;;9.22;72.81
44044;BME280;29709;52.396;16.796;2023-04-30T00:55:03;101893.86;;;9.16;72.32
44044;BME280;29709;52.396;16.796;2023-04-30T00:58:16;101901.36;;;9.14;72.49
44044;BME280;29709;52.396;16.796;2023-04-30T01:01:30;101902.05;;;9.07;72.30
44044;BME280;29709;52.396;16.796;2023-04-30T01:04:45;101909.18;;;8.98;72.85
44044;BME280;29709;52.396;16.796;2023-04-30T01:07:58;101907.55;;;8.95;72.75
44044;BME280;29709;52.396;16.796;2023-04-30T01:11:25;101910.42;;;8.94;73.02
44044;BME280;29709;52.396;16.796;2023-04-30T01:14:50;101912.20;;;8.84;72.67
44044;BME280;29709;52.396;16.796;2023-04-30T01:18:06;101903.99;;;8.84;73.36
44044;BME280;29709;52.396;16.796;2023-04-30T01:21:26;101913.71;;;8.88;72.88
44044;BME280;29709;52.396;16.796;2023-04-30T01:28:13;101926.59;;;8.76;73.53
44044;BME280;29709;52.396;16.796;2023-04-30T01:31:31;101935.18;;;8.72;73.44
44044;BME280;29709;52.396;16.796;2023-04-30T01:34:45;101934.70;;;8.66;73.25
44044;BME280;29709;52.396;16.796;2023-04-30T01:41:36;101947.20;;;8.48;73.33
44044;BME280;29709;52.396;16.796;2023-04-30T01:48:24;101948.81;;;8.39;73.25
44044;BME280;29709;52.396;16.796;2023-04-30T01:51:41;101958.91;;;8.39;73.50
44044;BME280;29709;52.396;16.796;2023-04-30T01:55:00;101956.77;;;8.43;73.99
44044;BME280;29709;52.396;16.796;2023-04-30T01:58:16;101964.25;;;8.41;72.96
44044;BME280;29709;52.396;16.796;2023-04-30T02:01:31;101972.48;;;8.41;73.54
44044;BME280;29709;52.396;16.796;2023-04-30T02:04:44;101977.34;;;8.37;73.52
44044;BME280;29709;52.396;16.796;2023-04-30T02:07:57;101979.34;;;8.35;73.19
44044;BME280;29709;52.396;16.796;2023-04-30T02:11:11;101983.95;;;8.34;73.45
44044;BME280;29709;52.396;16.796;2023-04-30T02:14:24;101988.75;;;8.31;73.25
44044;BME280;29709;52.396;16.796;2023-04-30T02:17:37;101987.76;;;8.21;73.00
44044;BME280;29709;52.396;16.796;2023-04-30T02:20:50;101987.40;;;8.14;73.55
44044;BME280;29709;52.396;16.796;2023-04-30T02:24:04;101997.84;;;8.09;73.03
44044;BME280;29709;52.396;16.796;2023-04-30T02:27:19;101996.22;;;7.95;73.04
44044;BME280;29709;52.396;16.796;2023-04-30T02:30:33;102001.42;;;7.87;73.52
44044;BME280;29709;52.396;16.796;2023-04-30T02:33:46;101997.81;;;7.87;74.25
44044;BME280;29709;52.396;16.796;2023-04-30T02:36:59;101998.67;;;7.87;74.44
44044;BME280;29709;52.396;16.796;2023-04-30T02:40:12;101995.69;;;7.90;75.44
44044;BME280;29709;52.396;16.796;2023-04-30T02:43:25;101999.95;;;7.94;75.20
44044;BME280;29709;52.396;16.796;2023-04-30T02:46:39;102004.29;;;7.97;73.76
44044;BME280;29709;52.396;16.796;2023-04-30T02:49:52;102002.91;;;7.91;73.87
44044;BME280;29709;52.396;16.796;2023-04-30T02:53:05;102006.64;;;7.90;74.43
44044;BME280;29709;52.396;16.796;2023-04-30T02:56:18;102015.71;;;7.91;73.88
44044;BME280;29709;52.396;16.796;2023-04-30T02:59:33;102014.70;;;7.80;74.12
44044;BME280;29709;52.396;16.796;2023-04-30T03:02:46;102015.70;;;7.79;74.48
44044;BME280;29709;52.396;16.796;2023-04-30T03:05:59;102024.91;;;7.78;74.16
44044;BME280;29709;52.396;16.796;2023-04-30T03:09:13;102024.62;;;7.70;75.04
44044;BME280;29709;52.396;16.796;2023-04-30T03:12:27;102035.48;;;7.72;73.80
44044;BME280;29709;52.396;16.796;2023-04-30T03:15:40;102032.46;;;7.64;74.68
44044;BME280;29709;52.396;16.796;2023-04-30T03:18:53;102035.54;;;7.59;74.36
44044;BME280;29709;52.396;16.796;2023-04-30T03:22:06;102031.43;;;7.53;74.13
44044;BME280;29709;52.396;16.796;2023-04-30T03:25:19;102037.02;;;7.52;74.92
44044;BME280;29709;52.396;16.796;2023-04-30T03:28:33;102050.04;;;7.48;74.85
44044;BME280;29709;52.396;16.796;2023-04-30T03:31:47;102047.80;;;7.42;74.80
44044;BME280;29709;52.396;16.796;2023-04-30T03:35:00;102049.79;;;7.40;75.04
44044;BME280;29709;52.396;16.796;2023-04-30T03:38:13;102052.97;;;7.34;74.52
44044;BME280;29709;52.396;16.796;2023-04-30T03:41:26;102063.04;;;7.34;74.40
44044;BME280;29709;52.396;16.796;2023-04-30T03:44:40;102053.43;;;7.28;74.49
44044;BME280;29709;52.396;16.796;2023-04-30T03:47:53;102060.01;;;7.26;74.36
44044;BME280;29709;52.396;16.796;2023-04-30T03:51:07;102060.64;;;7.29;74.49
44044;BME280;29709;52.396;16.796;2023-04-30T03:54:21;102069.96;;;7.27;74.61
44044;BME280;29709;52.396;16.796;2023-04-30T03:57:34;102078.73;;;7.19;75.12
44044;BME280;29709;52.396;16.796;2023-04-30T04:00:49;102084.11;;;7.20;75.71
44044;BME280;29709;52.396;16.796;2023-04-30T04:04:02;102090.20;;;7.24;74.77
44044;BME280;29709;52.396;16.796;2023-04-30T04:07:15;102092.63;;;7.16;74.50
44044;BME280;29709;52.396;16.796;2023-04-30T04:10:28;102106.88;;;7.08;73.93
44044;BME280;29709;52.396;16.796;2023-04-30T04:13:42;102095.30;;;7.05;75.30
44044;BME280;29709;52.396;16.796;2023-04-30T04:16:55;102105.91;;;7.09;75.06
44044;BME280;29709;52.396;16.796;2023-04-30T04:20:11;102116.26;;;7.17;74.77
44044;BME280;29709;52.396;16.796;2023-04-30T04:23:25;102112.66;;;7.16;75.22
44044;BME280;29709;52.396;16.796;2023-04-30T04:26:38;102110.46;;;7.21;75.72
44044;BME280;29709;52.396;16.796;2023-04-30T04:29:52;102124.53;;;7.28;75.79
44044;BME280;29709;52.396;16.796;2023-04-30T04:33:06;102122.10;;;7.36;75.76
44044;BME280;29709;52.396;16.796;2023-04-30T04:36:20;102135.21;;;7.44;75.46
44044;BME280;29709;52.396;16.796;2023-04-30T04:39:34;102133.34;;;7.44;74.41
44044;BME280;29709;52.396;16.796;2023-04-30T04:42:49;102132.98;;;7.49;75.35
44044;BME280;29709;52.396;16.796;2023-04-30T04:46:04;102141.61;;;7.56;75.08
44044;BME280;29709;52.396;16.796;2023-04-30T04:49:18;102142.23;;;7.59;75.07
44044;BME280;29709;52.396;16.796;2023-04-30T04:52:31;102139.92;;;7.66;74.99
44044;BME280;29709;52.396;16.796;2023-04-30T04:55:44;102147.44;;;7.75;74.83
44044;BME280;29709;52.396;16.796;2023-04-30T04:58:58;102152.41;;;7.81;74.90
44044;BME280;29709;52.396;16.796;2023-04-30T05:02:11;102151.66;;;7.79;74.05
44044;BME280;29709;52.396;16.796;2023-04-30T05:05:24;102156.06;;;7.81;73.80
44044;BME280;29709;52.396;16.796;2023-04-30T05:08:37;102160.76;;;7.79;73.75
44044;BME280;29709;52.396;16.796;2023-04-30T05:11:51;102169.02;;;7.91;74.08
44044;BME280;29709;52.396;16.796;2023-04-30T05:15:05;102170.66;;;7.93;73.62
44044;BME280;29709;52.396;16.796;2023-04-30T05:18:19;102176.23;;;7.92;73.06
44044;BME280;29709;52.396;16.796;2023-04-30T05:21:32;102170.71;;;8.04;73.32
44044;BME280;29709;52.396;16.796;2023-04-30T05:24:45;102174.60;;;8.13;73.21
44044;BME280;29709;52.396;16.796;2023-04-30T05:27:58;102183.67;;;8.37;72.77
44044;BME280;29709;52.396;16.796;2023-04-30T05:31:12;102184.86;;;8.68;71.95
44044;BME280;29709;52.396;16.796;2023-04-30T05:34:25;102191.23;;;9.03;70.70
44044;BME280;29709;52.396;16.796;2023-04-30T05:37:38;102189.23;;;9.38;69.68
44044;BME280;29709;52.396;16.796;2023-04-30T05:40:51;102198.16;;;9.63;68.54
44044;BME280;29709;52.396;16.796;2023-04-30T05:44:04;102214.34;;;9.77;67.82
44044;BME280;29709;52.396;16.796;2023-04-30T05:47:18;102213.35;;;10.10;66.83
44044;BME280;29709;52.396;16.796;2023-04-30T05:50:31;102223.22;;;10.24;66.44
44044;BME280;29709;52.396;16.796;2023-04-30T05:53:44;102215.07;;;10.54;66.44
44044;BME280;29709;52.396;16.796;2023-04-30T05:56:57;102213.84;;;10.89;65.61
44044;BME280;29709;52.396;16.796;2023-04-30T06:00:11;102214.70;;;10.89;63.78
44044;BME280;29709;52.396;16.796;2023-04-30T06:03:25;102224.31;;;10.95;63.99
44044;BME280;29709;52.396;16.796;2023-04-30T06:06:38;102228.80;;;10.96;63.73
44044;BME280;29709;52.396;16.796;2023-04-30T06:09:51;102227.33;;;11.22;63.24
44044;BME280;29709;52.396;16.796;2023-04-30T06:13:05;102225.96;;;11.38;63.79
44044;BME280;29709;52.396;16.796;2023-04-30T06:16:19;102241.46;;;11.39;62.10
44044;BME280;29709;52.396;16.796;2023-04-30T06:19:32;102236.68;;;11.41;62.43
44044;BME280;29709;52.396;16.796;2023-04-30T06:22:45;102243.06;;;11.41;62.17
44044;BME280;29709;52.396;16.796;2023-04-30T06:25:58;102235.77;;;11.71;61.08
44044;BME280;29709;52.396;16.796;2023-04-30T06:29:12;102239.80;;;11.67;60.42
44044;BME280;29709;52.396;16.796;2023-04-30T06:32:25;102250.18;;;11.84;61.23
44044;BME280;29709;52.396;16.796;2023-04-30T06:35:39;102252.96;;;11.94;60.03
44044;BME280;29709;52.396;16.796;2023-04-30T06:38:52;102255.30;;;12.08;60.05
44044;BME280;29709;52.396;16.796;2023-04-30T06:42:05;102251.26;;;12.12;58.21
44044;BME280;29709;52.396;16.796;2023-04-30T06:45:19;102251.29;;;12.31;59.54
44044;BME280;29709;52.396;16.796;2023-04-30T06:48:32;102254.32;;;12.48;58.47
44044;BME280;29709;52.396;16.796;2023-04-30T06:51:45;102259.26;;;12.63;56.57
44044;BME280;29709;52.396;16.796;2023-04-30T06:54:59;102260.84;;;12.85;57.78
44044;BME280;29709;52.396;16.796;2023-04-30T06:58:12;102251.64;;;13.04;56.89
44044;BME280;29709;52.396;16.796;2023-04-30T07:01:26;102261.80;;;13.13;56.04
44044;BME280;29709;52.396;16.796;2023-04-30T07:04:39;102253.41;;;12.95;54.60
44044;BME280;29709;52.396;16.796;2023-04-30T07:07:52;102255.70;;;13.00;53.46
44044;BME280;29709;52.396;16.796;2023-04-30T07:11:06;102256.30;;;13.04;53.88
44044;BME280;29709;52.396;16.796;2023-04-30T07:14:19;102258.33;;;12.92;52.25
44044;BME280;29709;52.396;16.796;2023-04-30T07:17:33;102263.45;;;12.77;51.80
44044;BME280;29709;52.396;16.796;2023-04-30T07:20:47;102258.48;;;12.90;52.02
44044;BME280;29709;52.396;16.796;2023-04-30T07:24:00;102254.87;;;12.80;51.09
44044;BME280;29709;52.396;16.796;2023-04-30T07:27:13;102255.48;;;12.55;50.60
44044;BME280;29709;52.396;16.796;2023-04-30T07:30:27;102264.77;;;12.44;48.11
44044;BME280;29709;52.396;16.796;2023-04-30T07:33:40;102253.44;;;12.28;50.55
44044;BME280;29709;52.396;16.796;2023-04-30T07:36:54;102254.77;;;12.53;50.89
44044;BME280;29709;52.396;16.796;2023-04-30T07:40:08;102263.76;;;12.64;49.34
44044;BME280;29709;52.396;16.796;2023-04-30T07:43:24;102265.34;;;12.48;47.82
44044;BME280;29709;52.396;16.796;2023-04-30T07:46:37;102276.53;;;12.56;48.42
44044;BME280;29709;52.396;16.796;2023-04-30T07:49:53;102273.20;;;12.62;49.79
44044;BME280;29709;52.396;16.796;2023-04-30T07:53:07;102276.94;;;12.80;49.86
44044;BME280;29709;52.396;16.796;2023-04-30T07:56:23;102276.38;;;12.77;48.45
44044;BME280;29709;52.396;16.796;2023-04-30T07:59:37;102275.81;;;12.63;49.03
44044;BME280;29709;52.396;16.796;2023-04-30T08:02:50;102268.95;;;12.96;50.98
44044;BME280;29709;52.396;16.796;2023-04-30T08:06:04;102288.39;;;13.24;50.76
44044;BME280;29709;52.396;16.796;2023-04-30T08:09:19;102289.51;;;13.31;48.75
44044;BME280;29709;52.396;16.796;2023-04-30T08:12:35;102276.08;;;13.55;49.87
44044;BME280;29709;52.396;16.796;2023-04-30T08:15:48;102288.46;;;13.79;48.59
44044;BME280;29709;52.396;16.796;2023-04-30T08:19:02;102287.93;;;13.93;48.84
44044;BME280;29709;52.396;16.796;2023-04-30T08:22:16;102290.48;;;13.49;47.23
44044;BME280;29709;52.396;16.796;2023-04-30T08:26:42;102293.04;;;13.61;48.30
44044;BME280;29709;52.396;16.796;2023-04-30T08:29:56;102296.63;;;13.71;46.69
44044;BME280;29709;52.396;16.796;2023-04-30T08:33:09;102294.58;;;13.73;46.29
44044;BME280;29709;52.396;16.796;2023-04-30T08:36:22;102291.89;;;13.53;45.58
44044;BME280;29709;52.396;16.796;2023-04-30T08:39:37;102294.81;;;13.52;47.20
44044;BME280;29709;52.396;16.796;2023-04-30T08:42:56;102292.09;;;13.79;47.52
44044;BME280;29709;52.396;16.796;2023-04-30T08:46:11;102306.88;;;13.88;45.19
44044;BME280;29709;52.396;16.796;2023-04-30T08:49:29;102307.21;;;13.75;45.78
44044;BME280;29709;52.396;16.796;2023-04-30T08:52:44;102309.27;;;13.73;44.33
44044;BME280;29709;52.396;16.796;2023-04-30T08:55:58;102306.41;;;13.65;45.30
44044;BME280;29709;52.396;16.796;2023-04-30T08:59:12;102310.80;;;13.85;46.21
44044;BME280;29709;52.396;16.796;2023-04-30T09:02:25;102313.40;;;13.97;45.29
44044;BME280;29709;52.396;16.796;2023-04-30T09:05:38;102305.70;;;14.18;45.48
44044;BME280;29709;52.396;16.796;2023-04-30T09:08:54;102314.25;;;14.42;45.30
44044;BME280;29709;52.396;16.796;2023-04-30T09:12:14;102306.23;;;14.49;44.43
44044;BME280;29709;52.396;16.796;2023-04-30T09:15:33;102313.66;;;14.66;43.83
44044;BME280;29709;52.396;16.796;2023-04-30T09:18:47;102310.02;;;14.84;42.42
44044;BME280;29709;52.396;16.796;2023-04-30T09:25:36;102312.29;;;14.88;42.09
44044;BME280;29709;52.396;16.796;2023-04-30T09:28:56;102315.25;;;14.51;41.71
44044;BME280;29709;52.396;16.796;2023-04-30T09:32:10;102314.16;;;14.34;43.32
44044;BME280;29709;52.396;16.796;2023-04-30T09:35:39;102313.18;;;14.08;41.51
44044;BME280;29709;52.396;16.796;2023-04-30T09:38:48;102311.35;;;13.62;41.95
44044;BME280;29709;52.396;16.796;2023-04-30T09:42:10;102320.26;;;13.55;43.77
44044;BME280;29709;52.396;16.796;2023-04-30T09:45:24;102309.22;;;13.83;43.74
44044;BME280;29709;52.396;16.796;2023-04-30T09:48:40;102314.38;;;13.96;42.89
44044;BME280;29709;52.396;16.796;2023-04-30T09:51:57;102304.12;;;13.88;43.79
44044;BME280;29709;52.396;16.796;2023-04-30T09:55:11;102308.08;;;14.31;43.79
44044;BME280;29709;52.396;16.796;2023-04-30T09:58:26;102298.23;;;14.64;42.77
44044;BME280;29709;52.396;16.796;2023-04-30T10:01:40;102301.05;;;14.90;42.21
44044;BME280;29709;52.396;16.796;2023-04-30T10:04:58;102300.26;;;14.97;41.05
44044;BME280;29709;52.396;16.796;2023-04-30T10:08:23;102297.93;;;15.11;40.51
44044;BME280;29709;52.396;16.796;2023-04-30T10:11:38;102287.68;;;15.29;40.85
44044;BME280;29709;52.396;16.796;2023-04-30T10:14:58;102281.50;;;15.35;40.45
44044;BME280;29709;52.396;16.796;2023-04-30T10:18:30;102285.84;;;15.38;39.59
44044;BME280;29709;52.396;16.796;2023-04-30T10:21:39;102284.45;;;15.34;39.66
44044;BME280;29709;52.396;16.796;2023-04-30T10:24:54;102282.62;;;15.50;40.54
44044;BME280;29709;52.396;16.796;2023-04-30T10:28:08;102292.57;;;15.61;40.13
44044;BME280;29709;52.396;16.796;2023-04-30T10:31:23;102284.36;;;15.77;39.88
44044;BME280;29709;52.396;16.796;2023-04-30T10:34:50;102288.55;;;15.55;37.88
44044;BME280;29709;52.396;16.796;2023-04-30T10:41:32;102274.16;;;15.26;39.45
44044;BME280;29709;52.396;16.796;2023-04-30T10:44:45;102266.84;;;15.43;39.81
44044;BME280;29709;52.396;16.796;2023-04-30T10:48:01;102272.20;;;15.70;39.90
44044;BME280;29709;52.396;16.796;2023-04-30T10:51:16;102267.98;;;16.00;40.12
44044;BME280;29709;52.396;16.796;2023-04-30T10:54:34;102264.72;;;16.05;39.82
44044;BME280;29709;52.396;16.796;2023-04-30T10:57:50;102280.66;;;16.11;39.91
44044;BME280;29709;52.396;16.796;2023-04-30T11:01:10;102272.66;;;16.00;39.49
44044;BME280;29709;52.396;16.796;2023-04-30T11:04:24;102266.63;;;16.12;39.07
44044;BME280;29709;52.396;16.796;2023-04-30T11:07:48;102265.45;;;16.31;39.59
44044;BME280;29709;52.396;16.796;2023-04-30T11:11:02;102266.69;;;16.45;38.25
44044;BME280;29709;52.396;16.796;2023-04-30T11:14:20;102271.38;;;16.44;38.23
44044;BME280;29709;52.396;16.796;2023-04-30T11:17:36;102264.08;;;16.43;38.66
44044;BME280;29709;52.396;16.796;2023-04-30T11:20:50;102255.79;;;16.52;37.95
44044;BME280;29709;52.396;16.796;2023-04-30T11:24:11;102270.31;;;16.29;37.01
44044;BME280;29709;52.396;16.796;2023-04-30T11:27:29;102265.98;;;16.27;37.36
44044;BME280;29709;52.396;16.796;2023-04-30T11:34:09;102266.07;;;16.01;36.79
44044;BME280;29709;52.396;16.796;2023-04-30T11:37:32;102275.46;;;16.08;37.38
44044;BME280;29709;52.396;16.796;2023-04-30T11:40:46;102275.66;;;16.23;37.64
44044;BME280;29709;52.396;16.796;2023-04-30T11:44:02;102271.19;;;16.30;35.76
44044;BME280;29709;52.396;16.796;2023-04-30T11:47:16;102256.63;;;16.44;36.41
44044;BME280;29709;52.396;16.796;2023-04-30T11:50:32;102260.48;;;16.59;35.88
44044;BME280;29709;52.396;16.796;2023-04-30T11:53:47;102268.96;;;16.66;35.12
44044;BME280;29709;52.396;16.796;2023-04-30T11:57:01;102270.05;;;16.73;35.66
44044;BME280;29709;52.396;16.796;2023-04-30T12:03:49;102267.79;;;16.85;34.95
44044;BME280;29709;52.396;16.796;2023-04-30T12:07:01;102263.82;;;16.71;34.20
44044;BME280;29709;52.396;16.796;2023-04-30T12:10:18;102268.68;;;16.69;34.39
44044;BME280;29709;52.396;16.796;2023-04-30T12:13:32;102267.74;;;16.52;35.10
44044;BME280;29709;52.396;16.796;2023-04-30T12:16:49;102267.41;;;16.63;34.81
44044;BME280;29709;52.396;16.796;2023-04-30T12:20:03;102259.99;;;16.72;34.90
44044;BME280;29709;52.396;16.796;2023-04-30T12:23:19;102262.54;;;16.65;32.19
44044;BME280;29709;52.396;16.796;2023-04-30T12:26:39;102265.49;;;16.56;33.31
44044;BME280;29709;52.396;16.796;2023-04-30T12:29:52;102258.75;;;16.58;33.21
44044;BME280;29709;52.396;16.796;2023-04-30T12:33:11;102262.02;;;16.54;33.55
44044;BME280;29709;52.396;16.796;2023-04-30T12:36:29;102263.41;;;16.66;34.63
44044;BME280;29709;52.396;16.796;2023-04-30T12:39:44;102254.09;;;16.91;34.11
44044;BME280;29709;52.396;16.796;2023-04-30T12:43:06;102260.15;;;16.95;32.46
44044;BME280;29709;52.396;16.796;2023-04-30T12:46:26;102247.67;;;16.91;32.74
44044;BME280;29709;52.396;16.796;2023-04-30T12:49:44;102244.16;;;17.05;33.87
44044;BME280;29709;52.396;16.796;2023-04-30T12:53:03;102248.84;;;16.64;31.40
44044;BME280;29709;52.396;16.796;2023-04-30T12:56:18;102254.38;;;16.56;32.91
44044;BME280;29709;52.396;16.796;2023-04-30T12:59:33;102242.09;;;16.58;33.41
44044;BME280;29709;52.396;16.796;2023-04-30T13:02:48;102245.61;;;16.68;32.02
44044;BME280;29709;52.396;16.796;2023-04-30T13:06:03;102241.21;;;16.66;33.24
44044;BME280;29709;52.396;16.796;2023-04-30T13:09:18;102244.71;;;16.84;32.81
44044;BME280;29709;52.396;16.796;2023-04-30T13:12:34;102229.59;;;16.95;32.43
44044;BME280;29709;52.396;16.796;2023-04-30T13:15:49;102245.08;;;16.89;33.34
44044;BME280;29709;52.396;16.796;2023-04-30T13:19:02;102255.31;;;16.89;32.83
44044;BME280;29709;52.396;16.796;2023-04-30T13:22:17;102233.10;;;16.89;33.16
44044;BME280;29709;52.396;16.796;2023-04-30T13:25:34;102238.66;;;16.89;32.56
44044;BME280;29709;52.396;16.796;2023-04-30T13:28:48;102236.92;;;16.71;32.45
44044;BME280;29709;52.396;16.796;2023-04-30T13:32:02;102235.70;;;16.82;33.05
44044;BME280;29709;52.396;16.796;2023-04-30T13:35:16;102234.11;;;16.96;34.83
44044;BME280;29709;52.396;16.796;2023-04-30T13:38:30;102224.41;;;17.00;33.07
44044;BME280;29709;52.396;16.796;2023-04-30T13:41:46;102226.44;;;17.14;33.36
44044;BME280;29709;52.396;16.796;2023-04-30T13:45:07;102224.91;;;16.95;33.14
44044;BME280;29709;52.396;16.796;2023-04-30T13:48:20;102227.87;;;16.94;33.58
44044;BME280;29709;52.396;16.796;2023-04-30T13:51:35;102243.16;;;16.82;31.92
44044;BME280;29709;52.396;16.796;2023-04-30T13:54:50;102232.91;;;16.58;32.41
44044;BME280;29709;52.396;16.796;2023-04-30T13:58:04;102228.21;;;16.50;33.26
44044;BME280;29709;52.396;16.796;2023-04-30T14:01:17;102229.80;;;16.69;32.70
44044;BME280;29709;52.396;16.796;2023-04-30T14:04:32;102226.32;;;16.83;32.46
44044;BME280;29709;52.396;16.796;2023-04-30T14:07:45;102225.63;;;16.89;32.28
44044;BME280;29709;52.396;16.796;2023-04-30T14:11:02;102217.12;;;16.91;33.57
44044;BME280;29709;52.396;16.796;2023-04-30T14:14:16;102210.89;;;16.81;32.96
44044;BME280;29709;52.396;16.796;2023-04-30T14:17:34;102210.70;;;16.90;33.93
44044;BME280;29709;52.396;16.796;2023-04-30T14:20:47;102209.28;;;17.11;34.04
44044;BME280;29709;52.396;16.796;2023-04-30T14:24:01;102210.64;;;17.15;33.80
44044;BME280;29709;52.396;16.796;2023-04-30T14:27:15;102210.84;;;17.05;33.56
44044;BME280;29709;52.396;16.796;2023-04-30T14:30:28;102216.56;;;17.12;34.33
44044;BME280;29709;52.396;16.796;2023-04-30T14:33:41;102219.71;;;17.00;32.75
44044;BME280;29709;52.396;16.796;2023-04-30T14:36:55;102210.52;;;16.84;32.53
44044;BME280;29709;52.396;16.796;2023-04-30T14:40:13;102203.41;;;16.89;33.06
44044;BME280;29709;52.396;16.796;2023-04-30T14:43:27;102214.02;;;16.69;31.67
44044;BME280;29709;52.396;16.796;2023-04-30T14:46:40;102206.02;;;16.83;34.08
44044;BME280;29709;52.396;16.796;2023-04-30T14:49:55;102195.09;;;16.81;31.21
44044;BME280;29709;52.396;16.796;2023-04-30T14:53:12;102203.22;;;16.42;26.80
44044;BME280;29709;52.396;16.796;2023-04-30T14:56:25;102194.17;;;16.24;28.77
44044;BME280;29709;52.396;16.796;2023-04-30T14:59:40;102196.77;;;16.25;30.20
44044;BME280;29709;52.396;16.796;2023-04-30T15:02:53;102200.96;;;16.29;31.49
44044;BME280;29709;52.396;16.796;2023-04-30T15:06:08;102208.91;;;16.24;31.61
44044;BME280;29709;52.396;16.796;2023-04-30T15:09:22;102207.38;;;16.30;32.60
44044;BME280;29709;52.396;16.796;2023-04-30T15:12:35;102202.01;;;16.28;32.84
44044;BME280;29709;52.396;16.796;2023-04-30T15:15:49;102205.82;;;16.27;32.88
44044;BME280;29709;52.396;16.796;2023-04-30T15:19:02;102208.93;;;16.16;32.13
44044;BME280;29709;52.396;16.796;2023-04-30T15:22:16;102202.66;;;16.06;32.13
44044;BME280;29709;52.396;16.796;2023-04-30T15:25:29;102198.84;;;16.15;32.09
44044;BME280;29709;52.396;16.796;2023-04-30T15:28:44;102200.26;;;16.19;30.08
44044;BME280;29709;52.396;16.796;2023-04-30T15:31:57;102203.00;;;16.11;30.73
44044;BME280;29709;52.396;16.796;2023-04-30T15:35:11;102203.70;;;16.13;31.07
44044;BME280;29709;52.396;16.796;2023-04-30T15:38:24;102206.48;;;16.21;31.75
44044;BME280;29709;52.396;16.796;2023-04-30T15:41:37;102204.56;;;16.13;31.53
44044;BME280;29709;52.396;16.796;2023-04-30T15:44:50;102191.20;;;16.01;31.68
44044;BME280;29709;52.396;16.796;2023-04-30T15:48:05;102198.67;;;16.08;33.37
44044;BME280;29709;52.396;16.796;2023-04-30T15:51:18;102199.37;;;16.10;32.13
44044;BME280;29709;52.396;16.796;2023-04-30T15:54:31;102196.25;;;16.05;31.76
44044;BME280;29709;52.396;16.796;2023-04-30T15:57:45;102188.42;;;16.01;31.41
44044;BME280;29709;52.396;16.796;2023-04-30T16:00:58;102201.45;;;16.08;32.27
44044;BME280;29709;52.396;16.796;2023-04-30T16:04:13;102203.70;;;16.13;32.65
44044;BME280;29709;52.396;16.796;2023-04-30T16:07:26;102192.79;;;16.20;33.06
44044;BME280;29709;52.396;16.796;2023-04-30T16:10:40;102202.34;;;16.17;33.50
44044;BME280;29709;52.396;16.796;2023-04-30T16:13:54;102197.81;;;16.08;32.58
44044;BME280;29709;52.396;16.796;2023-04-30T16:17:08;102201.77;;;15.97;32.80
44044;BME280;29709;52.396;16.796;2023-04-30T16:20:22;102199.86;;;15.98;33.02
44044;BME280;29709;52.396;16.796;2023-04-30T16:23:37;102198.14;;;15.97;31.45
44044;BME280;29709;52.396;16.796;2023-04-30T16:26:50;102201.92;;;15.87;31.17
44044;BME280;29709;52.396;16.796;2023-04-30T16:30:04;102199.15;;;15.87;32.10
44044;BME280;29709;52.396;16.796;2023-04-30T16:33:17;102198.45;;;15.85;31.79
44044;BME280;29709;52.396;16.796;2023-04-30T16:36:37;102199.81;;;15.81;32.28
44044;BME280;29709;52.396;16.796;2023-04-30T16:39:50;102198.77;;;15.74;32.93
44044;BME280;29709;52.396;16.796;2023-04-30T16:43:03;102190.11;;;15.77;32.77
44044;BME280;29709;52.396;16.796;2023-04-30T16:46:20;102197.18;;;15.72;32.73
44044;BME280;29709;52.396;16.796;2023-04-30T16:49:33;102194.33;;;15.55;32.76
44044;BME280;29709;52.396;16.796;2023-04-30T16:52:46;102195.54;;;15.53;32.70
44044;BME280;29709;52.396;16.796;2023-04-30T16:56:01;102201.56;;;15.48;32.84
44044;BME280;29709;52.396;16.796;2023-04-30T16:59:14;102190.95;;;15.36;32.43
44044;BME280;29709;52.396;16.796;2023-04-30T17:02:29;102197.84;;;15.31;32.78
44044;BME280;29709;52.396;16.796;2023-04-30T17:05:42;102203.84;;;15.19;32.14
44044;BME280;29709;52.396;16.796;2023-04-30T17:08:55;102197.07;;;15.13;32.67
44044;BME280;29709;52.396;16.796;2023-04-30T17:12:10;102190.84;;;15.11;33.29